^^
Saratoga-Weather Station Historical Data
Daily Summary for May 26, 2021 Units:  English    Metric   Both
Daily Weekly Monthly Yearly Custom
  High: Low: Average:
Temperature: 33.8 °F 31.6 °F 32.9 °F
Dew Point: 31.3 °F 29.7 °F 30.6 °F
Humidity: 92% 90% 91%
Wind Speed: 12.1mph 0.9mph 5.3mph
Wind Gust: 17mph - -
Wind- - West
Pressure: 30.1 in 30 in -
Precipitation: 0 in    
Historical Graphs
 
 
Tabular Data for May 26, 2021
Time Temperature Dew Point Pressure Wind Wind Speed Wind Gust Humidity Rainfall Rate (Hourly) solar
00:03 32 °F 30 °F 30 in West 4 mph 8 mph 92% 0 in 0 W/m2
00:08 32.2 °F 30.2 °F 30 in West 6 mph 9 mph 92% 0 in 0 W/m2
00:13 32.4 °F 30.4 °F 30 in WNW 4.9 mph 9 mph 92% 0 in 0 W/m2
00:18 32.4 °F 30.4 °F 30 in WSW 2.9 mph 9 mph 92% 0 in 0 W/m2
00:23 32.4 °F 30.4 °F 30 in WSW 2 mph 10 mph 92% 0 in 0 W/m2
00:28 32.4 °F 30.4 °F 30 in West 2 mph 4 mph 92% 0 in 0 W/m2
00:33 32.4 °F 30 °F 30 in WSW 0.9 mph 4 mph 91% 0 in 0 W/m2
00:38 32.4 °F 30 °F 30 in WNW 2.9 mph 6 mph 91% 0 in 0 W/m2
00:43 32.2 °F 29.8 °F 30 in WSW 2.9 mph 8 mph 91% 0 in 0 W/m2
00:48 32.4 °F 30.4 °F 30 in WSW 0.9 mph 7 mph 92% 0 in 0 W/m2
00:53 32.4 °F 30.4 °F 30 in SW 0.9 mph 7 mph 92% 0 in 0 W/m2
00:58 32.4 °F 30 °F 30 in WNW 4 mph 6 mph 91% 0 in 0 W/m2
01:03 32.5 °F 30.6 °F 30 in West 0.9 mph 10 mph 92% 0 in 0 W/m2
01:08 32.5 °F 30.6 °F 30 in SW 4 mph 8 mph 92% 0 in 0 W/m2
01:13 32.7 °F 30.4 °F 30 in WSW 4 mph 10 mph 91% 0 in 0 W/m2
01:18 32.9 °F 30.6 °F 30 in North 2 mph 2 mph 91% 0 in 0 W/m2
01:23 33.1 °F 30.7 °F 30 in WNW 4 mph 9 mph 91% 0 in 0 W/m2
01:28 33.1 °F 30.7 °F 30 in WSW 2.9 mph 8 mph 91% 0 in 0 W/m2
01:33 33.1 °F 30.7 °F 30 in WSW 2.9 mph 9 mph 91% 0 in 0 W/m2
01:38 33.3 °F 30.9 °F 30 in West 2.9 mph 6 mph 91% 0 in 0 W/m2
01:43 33.3 °F 30.9 °F 30 in West 4 mph 10 mph 91% 0 in 0 W/m2
01:48 33.3 °F 30.9 °F 30 in WSW 0.9 mph 8 mph 91% 0 in 0 W/m2
01:53 33.3 °F 30.9 °F 30 in NW 2.9 mph 13 mph 91% 0 in 0 W/m2
01:58 33.3 °F 30.9 °F 30 in South 4 mph 10 mph 91% 0 in 0 W/m2
02:03 33.3 °F 30.9 °F 30 in WSW 4 mph 13 mph 91% 0 in 0 W/m2
02:08 33.3 °F 30.9 °F 30 in West 4 mph 11 mph 91% 0 in 0 W/m2
02:13 33.3 °F 30.9 °F 30 in West 8.9 mph 10 mph 91% 0 in 0 W/m2
02:18 33.4 °F 31.1 °F 30 in West 2.9 mph 7 mph 91% 0 in 0 W/m2
02:23 33.3 °F 30.9 °F 30 in WSW 0.9 mph 7 mph 91% 0 in 0 W/m2
02:28 33.3 °F 30.9 °F 30 in WSW 4 mph 11 mph 91% 0 in 0 W/m2
02:33 33.3 °F 30.9 °F 30 in NW 2 mph 8 mph 91% 0 in 0 W/m2
02:38 33.3 °F 30.9 °F 30 in WSW 4 mph 11 mph 91% 0 in 0 W/m2
02:43 33.3 °F 30.9 °F 30 in WSW 2.9 mph 12 mph 91% 0 in 0 W/m2
02:48 33.3 °F 30.6 °F 30 in North 0.9 mph 9 mph 90% 0 in 0 W/m2
02:53 33.3 °F 30.9 °F 30 in WNW 2.9 mph 6 mph 91% 0 in 0 W/m2
02:58 33.3 °F 30.6 °F 30 in WNW 8.1 mph 9 mph 90% 0 in 0 W/m2
03:03 33.4 °F 30.7 °F 30 in WNW 4 mph 6 mph 90% 0 in 0 W/m2
03:08 33.4 °F 30.7 °F 30 in WSW 6 mph 8 mph 90% 0 in 0 W/m2
03:13 33.4 °F 30.7 °F 30 in WSW 4 mph 11 mph 90% 0 in 0 W/m2
03:18 33.6 °F 30.9 °F 30 in West 2 mph 7 mph 90% 0 in 0 W/m2
03:23 33.6 °F 30.9 °F 30 in WSW 4.9 mph 10 mph 90% 0 in 0 W/m2
03:28 33.6 °F 30.9 °F 30 in West 4 mph 5 mph 90% 0 in 0 W/m2
03:33 33.6 °F 30.9 °F 30 in WSW 4 mph 10 mph 90% 0 in 0 W/m2
03:38 33.8 °F 31.1 °F 30 in WNW 4 mph 7 mph 90% 0 in 0 W/m2
03:43 33.8 °F 31.1 °F 30 in WSW 2.9 mph 8 mph 90% 0 in 0 W/m2
03:48 33.8 °F 31.1 °F 30 in West 6.9 mph 7 mph 90% 0 in 0 W/m2
03:53 33.8 °F 31.1 °F 30 in West 6 mph 10 mph 90% 0 in 0 W/m2
03:58 33.8 °F 31.1 °F 30 in West 6.9 mph 9 mph 90% 0 in 0 W/m2
04:03 33.6 °F 31.3 °F 30 in WSW 2.9 mph 9 mph 91% 0 in 0 W/m2
04:08 33.6 °F 31.3 °F 30 in West 4 mph 9 mph 91% 0 in 0 W/m2
04:13 33.6 °F 31.3 °F 30 in WNW 6.9 mph 10 mph 91% 0 in 0 W/m2
04:18 33.6 °F 31.3 °F 30 in WNW 8.9 mph 10 mph 91% 0 in 0 W/m2
04:23 33.6 °F 31.3 °F 30 in WSW 2.9 mph 9 mph 91% 0 in 0 W/m2
04:28 33.4 °F 31.1 °F 30 in West 10.1 mph 13 mph 91% 0 in 0 W/m2
04:33 33.4 °F 31.1 °F 30 in West 8.1 mph 11 mph 91% 0 in 0 W/m2
04:38 33.4 °F 31.1 °F 30 in West 2 mph 13 mph 91% 0 in 0 W/m2
04:43 33.4 °F 31.1 °F 30 in West 8.9 mph 9 mph 91% 0 in 0 W/m2
04:48 33.4 °F 31.1 °F 30 in South 4 mph 11 mph 91% 0 in 0 W/m2
04:53 33.3 °F 30.9 °F 30 in WSW 4.9 mph 9 mph 91% 0 in 0 W/m2
04:58 33.3 °F 30.9 °F 30 in WSW 8.1 mph 13 mph 91% 0 in 0 W/m2
05:03 33.3 °F 30.9 °F 30 in West 6 mph 7 mph 91% 0 in 0 W/m2
05:08 33.3 °F 30.9 °F 30 in West 6.9 mph 8 mph 91% 0 in 0 W/m2
05:13 33.3 °F 30.9 °F 30 in West 6 mph 10 mph 91% 0 in 0 W/m2
05:18 33.4 °F 31.1 °F 30 in West 0.9 mph 10 mph 91% 0 in 0 W/m2
05:23 33.4 °F 31.1 °F 30 in West 4 mph 11 mph 91% 0 in 0 W/m2
05:28 33.4 °F 31.1 °F 30 in WSW 10.1 mph 11 mph 91% 0 in 0 W/m2
05:33 33.4 °F 31.1 °F 30 in WSW 4.9 mph 8 mph 91% 0 in 0 W/m2
05:38 33.6 °F 31.3 °F 30 in West 6 mph 11 mph 91% 0 in 0 W/m2
05:43 33.6 °F 30.9 °F 30.1 in West 8.1 mph 12 mph 90% 0 in 0 W/m2
05:48 33.4 °F 30.7 °F 30.1 in WSW 4.9 mph 17 mph 90% 0 in 0 W/m2
05:53 33.4 °F 30.7 °F 30 in WSW 11 mph 11 mph 90% 0 in 0 W/m2
05:58 33.3 °F 30.6 °F 30 in WNW 4.9 mph 17 mph 90% 0 in 0 W/m2
06:03 33.3 °F 30.9 °F 30 in West 12.1 mph 16 mph 91% 0 in 0 W/m2
06:08 33.1 °F 30.7 °F 30 in WSW 2 mph 10 mph 91% 0 in 0 W/m2
06:13 33.1 °F 30.7 °F 30 in West 6.9 mph 16 mph 91% 0 in 0 W/m2
06:18 33.1 °F 30.7 °F 30 in WNW 8.1 mph 14 mph 91% 0 in 0 W/m2
06:23 33.1 °F 30.7 °F 30.1 in West 8.9 mph 12 mph 91% 0 in 0 W/m2
06:28 33.1 °F 30.7 °F 30.1 in WSW 4.9 mph 13 mph 91% 0 in 0 W/m2
06:33 33.1 °F 30.7 °F 30.1 in WNW 11 mph 11 mph 91% 0 in 0 W/m2
06:38 32.9 °F 30.6 °F 30.1 in WSW 8.1 mph 16 mph 91% 0 in 0 W/m2
06:43 32.9 °F 30.6 °F 30.1 in West 6.9 mph 13 mph 91% 0 in 0 W/m2
06:48 32.7 °F 30.4 °F 30.1 in WNW 10.1 mph 16 mph 91% 0 in 0 W/m2
06:53 32.7 °F 30.4 °F 30.1 in West 6 mph 13 mph 91% 0 in 0 W/m2
06:59 32.7 °F 30.4 °F 30.1 in NW 8.1 mph 10 mph 91% 0 in 0 W/m2
07:04 32.5 °F 30.2 °F 30.1 in WSW 4.9 mph 9 mph 91% 0 in 0 W/m2
07:09 32.5 °F 30.2 °F 30.1 in West 6 mph 11 mph 91% 0 in 0 W/m2
07:14 32.5 °F 30.2 °F 30.1 in WNW 8.1 mph 16 mph 91% 0 in 0 W/m2
07:19 32.4 °F 30 °F 30.1 in WSW 4 mph 14 mph 91% 0 in 0 W/m2
07:24 32.4 °F 30.4 °F 30.1 in WNW 8.1 mph 16 mph 92% 0 in 0 W/m2
07:29 32.4 °F 30 °F 30.1 in West 6.9 mph 11 mph 91% 0 in 0 W/m2
07:34 32.4 °F 30 °F 30.1 in West 6 mph 15 mph 91% 0 in 0 W/m2
07:39 32.2 °F 30.2 °F 30.1 in West 6 mph 9 mph 92% 0 in 0 W/m2
07:44 32.2 °F 30.2 °F 30.1 in West 8.9 mph 15 mph 92% 0 in 0 W/m2
07:49 32.2 °F 30.2 °F 30.1 in NW 4 mph 6 mph 92% 0 in 0 W/m2
07:54 32.2 °F 30.2 °F 30.1 in West 4 mph 15 mph 92% 0 in 0 W/m2
07:59 32.2 °F 30.2 °F 30.1 in WSW 6 mph 12 mph 92% 0 in 0 W/m2
08:04 32 °F 30 °F 30.1 in West 8.1 mph 12 mph 92% 0 in 0 W/m2
08:09 32 °F 30 °F 30.1 in WNW 11 mph 11 mph 92% 0 in 0 W/m2
08:14 31.8 °F 29.8 °F 30.1 in West 8.9 mph 14 mph 92% 0 in 7 W/m2
08:19 31.8 °F 29.8 °F 30.1 in West 8.1 mph 11 mph 92% 0 in 9 W/m2
08:24 31.8 °F 29.8 °F 30.1 in WNW 4 mph 12 mph 92% 0 in 12 W/m2
08:29 31.8 °F 29.8 °F 30.1 in WSW 2.9 mph 9 mph 92% 0 in 16 W/m2
08:34 31.8 °F 29.8 °F 30.1 in WNW 6.9 mph 12 mph 92% 0 in 21 W/m2
08:39 31.6 °F 29.7 °F 30.1 in West 2.9 mph 10 mph 92% 0 in 25 W/m2
08:44 31.8 °F 29.8 °F 30.1 in WSW 10.1 mph 11 mph 92% 0 in 30 W/m2
08:49 31.8 °F 29.8 °F 30.1 in WNW 2.9 mph 10 mph 92% 0 in 35 W/m2
08:54 31.8 °F 29.8 °F 30.1 in WNW 6 mph 11 mph 92% 0 in 46 W/m2
08:59 31.8 °F 29.8 °F 30.1 in NNW 4.9 mph 11 mph 92% 0 in 53 W/m2
09:04 32 °F 30 °F 30.1 in NW 11 mph 12 mph 92% 0 in 58 W/m2
09:09 32 °F 30 °F 30.1 in WNW 4 mph 11 mph 92% 0 in 62 W/m2
09:14 32.2 °F 30.2 °F 30.1 in WNW 4 mph 9 mph 92% 0 in 65 W/m2
09:19 32.2 °F 30.2 °F 30.1 in WNW 2 mph 10 mph 92% 0 in 67 W/m2
09:24 32.4 °F 30 °F 30.1 in West 4 mph 10 mph 91% 0 in 74 W/m2
09:29 32.4 °F 30 °F 30.1 in SW 4 mph 12 mph 91% 0 in 81 W/m2
09:34 32.4 °F 30.4 °F 30.1 in West 6.9 mph 11 mph 92% 0 in 84 W/m2
09:39 32.4 °F 30 °F 30.1 in West 8.1 mph 13 mph 91% 0 in 79 W/m2
09:44 32.5 °F 30.2 °F 30.1 in WNW 8.1 mph 12 mph 91% 0 in 76 W/m2
09:49 32.5 °F 30.2 °F 30.1 in SSW 10.1 mph 14 mph 91% 0 in 79 W/m2
09:54 32.5 °F 30.2 °F 30.1 in WNW 6.9 mph 15 mph 91% 0 in 81 W/m2
09:59 32.5 °F 30.2 °F 30.1 in West 4 mph 10 mph 91% 0 in 86 W/m2
10:04 32.5 °F 30.2 °F 30.1 in West 6 mph 13 mph 91% 0 in 95 W/m2
10:09 32.7 °F 30.4 °F 30.1 in West 4 mph 10 mph 91% 0 in 95 W/m2
10:14 32.7 °F 30.4 °F 30.1 in WNW 10.1 mph 10 mph 91% 0 in 120 W/m2
10:19 32.9 °F 30.6 °F 30.1 in WSW 4.9 mph 13 mph 91% 0 in 123 W/m2
10:24 33.1 °F 30.7 °F 30.1 in West 6.9 mph 12 mph 91% 0 in 130 W/m2
Juneau County Weather
Compliments of Weather Underground - 2 mb